Time;durP1;ratioP1;P1;durP2;ratioP2;P2;SDS_P1;SDS_P2;PMS_P1;PMS_P2;Temp;Humidity;BMP_temperature;BMP_pressure;BME280_temperature;BME280_humidity;BME280_pressure;Samples;Min_cycle;Max_cycle;Signal;HPM_P1;HPM_P2
2022/08/02 00:00:09;;;;;;;;;;;;;;;;;;5095870;28;19920;-88
2022/08/02 00:02:34;;;;;;;;;;;;;;;;;;5095936;28;19984;-88
2022/08/02 00:05:00;;;;;;;;;;;;;;;;;;5094540;28;20299;-87
2022/08/02 00:07:25;;;;;;;;;;;;;;;;;;5123888;28;19920;-88
2022/08/02 00:09:50;;;;;;;;;;;;;;;;;;5115285;28;20242;-86
2022/08/02 00:12:16;;;;;;;;;;;;;;;;;;5096492;28;19916;-88
2022/08/02 00:14:41;;;;;;;;;;;;;;;;;;5095850;28;19941;-88
2022/08/02 00:17:06;;;;;;;;;;;;;;;;;;5111054;28;19916;-87
2022/08/02 00:19:32;;;;;;;;;;;;;;;;;;5095802;28;19916;-88
2022/08/02 00:21:57;;;;;;;;;;;;;;;;;;5130701;28;19951;-88
2022/08/02 00:24:22;;;;;;;;;;;;;;;;;;5118100;28;19911;-87
2022/08/02 00:26:48;;;;;;;;;;;;;;;;;;5107161;28;20318;-86
2022/08/02 00:29:13;;;;;;;;;;;;;;;;;;5095403;28;19916;-87
2022/08/02 00:31:38;;;;;;;;;;;;;;;;;;5113896;28;19916;-87
2022/08/02 00:34:04;;;;;;;;;;;;;;;;;;5095188;28;19912;-87
2022/08/02 00:36:29;;;;;;;;;;;;;;;;;;5095203;28;20237;-87
2022/08/02 00:38:54;;;;;;;;;;;;;;;;;;5111098;28;20287;-87
2022/08/02 00:41:20;;;;;;;;;;;;;;;;;;5111130;28;19951;-88
2022/08/02 00:43:45;;;;;;;;;;;;;;;;;;5094908;28;20368;-87
2022/08/02 00:46:11;;;;;;;;;;;;;;;;;;5110500;28;20250;-87
2022/08/02 00:48:36;;;;;;;;;;;;;;;;;;5096135;28;19920;-86
2022/08/02 00:51:01;;;;;;;;;;;;;;;;;;5102468;28;19959;-87
2022/08/02 00:53:27;;;;;;;;;;;;;;;;;;5103766;28;19919;-87
2022/08/02 00:55:52;;;;;;;;;;;;;;;;;;5095389;28;20870;-88
2022/08/02 00:58:17;;;;;;;;;;;;;;;;;;5093645;28;20342;-88
2022/08/02 01:00:43;;;;;;;;;;;;;;;;;;5110623;28;20002;-87
2022/08/02 01:03:08;;;;;;;;;;;;;;;;;;5110709;28;20408;-87
2022/08/02 01:05:33;;;;;;;;;;;;;;;;;;5110787;28;20308;-87
2022/08/02 01:07:58;;;;;;;;;;;;;;;;;;5093371;28;19973;-87
2022/08/02 01:10:24;;;;;;;;;;;;;;;;;;5110729;28;19923;-88
2022/08/02 01:12:49;;;;;;;;;;;;;;;;;;5110891;28;20271;-87
2022/08/02 01:15:14;;;;;;;;;;;;;;;;;;5114362;28;19916;-88
2022/08/02 01:17:46;;;;;;;;;;;;;;;;;;5110833;28;19920;-89
2022/08/02 01:20:30;;;;;;;;;;;;;;;;;;5110840;28;20057;-87
2022/08/02 01:22:58;;;;;;;;;;;;;;;;;;5093518;28;20318;-88
2022/08/02 01:25:26;;;;;;;;;;;;;;;;;;5094730;28;20301;-88
2022/08/02 01:28:10;;;;;;;;;;;;;;;;;;5093544;28;19916;-92
2022/08/02 01:30:36;;;;;;;;;;;;;;;;;;5096890;28;19920;-90
2022/08/02 01:33:01;;;;;;;;;;;;;;;;;;5128957;28;20013;-89
2022/08/02 01:35:27;;;;;;;;;;;;;;;;;;5109679;28;20013;-88
2022/08/02 01:37:57;;;;;;;;;;;;;;;;;;5114994;28;19946;-88
2022/08/02 01:40:30;;;;;;;;;;;;;;;;;;5098854;28;19920;-88
2022/08/02 01:42:58;;;;;;;;;;;;;;;;;;5098359;28;19973;-88
2022/08/02 01:45:24;;;;;;;;;;;;;;;;;;5098201;28;19916;-88
2022/08/02 01:47:49;;;;;;;;;;;;;;;;;;5114017;28;19916;-89
2022/08/02 01:50:15;;;;;;;;;;;;;;;;;;5113827;28;19916;-87
2022/08/02 01:52:42;;;;;;;;;;;;;;;;;;5114105;28;19916;-90
2022/08/02 01:55:12;;;;;;;;;;;;;;;;;;5128021;28;20323;-87
2022/08/02 01:57:40;;;;;;;;;;;;;;;;;;5117624;28;20011;-88
2022/08/02 02:00:10;;;;;;;;;;;;;;;;;;5113967;28;19923;-90
2022/08/02 02:02:35;;;;;;;;;;;;;;;;;;5098173;28;19920;-90
2022/08/02 02:05:01;;;;;;;;;;;;;;;;;;5113623;28;20344;-87
2022/08/02 02:07:26;;;;;;;;;;;;;;;;;;5096446;28;20314;-90
2022/08/02 02:09:52;;;;;;;;;;;;;;;;;;5113903;28;19956;-87
2022/08/02 02:12:20;;;;;;;;;;;;;;;;;;5113564;28;19923;-90
2022/08/02 02:14:45;;;;;;;;;;;;;;;;;;5115541;28;19916;-89
2022/08/02 02:17:11;;;;;;;;;;;;;;;;;;5129495;28;19926;-89
2022/08/02 02:19:36;;;;;;;;;;;;;;;;;;5116219;28;19920;-90
2022/08/02 02:22:03;;;;;;;;;;;;;;;;;;5113782;28;20007;-88
2022/08/02 02:24:28;;;;;;;;;;;;;;;;;;5097735;28;19916;-88
2022/08/02 02:26:54;;;;;;;;;;;;;;;;;;5113332;28;19923;-89
2022/08/02 02:29:19;;;;;;;;;;;;;;;;;;5097672;28;20009;-89
2022/08/02 02:31:45;;;;;;;;;;;;;;;;;;5113371;28;20257;-90
2022/08/02 02:34:12;;;;;;;;;;;;;;;;;;5096239;28;19939;-87
2022/08/02 02:36:40;;;;;;;;;;;;;;;;;;5117548;28;19916;-89
2022/08/02 02:39:06;;;;;;;;;;;;;;;;;;5097614;28;20235;-88
2022/08/02 02:41:31;;;;;;;;;;;;;;;;;;5112566;28;20029;-89
2022/08/02 02:43:57;;;;;;;;;;;;;;;;;;5113104;28;19950;-89
2022/08/02 02:46:22;;;;;;;;;;;;;;;;;;5113043;28;19916;-88
2022/08/02 02:48:51;;;;;;;;;;;;;;;;;;5113089;28;19974;-88
2022/08/02 02:51:16;;;;;;;;;;;;;;;;;;5113420;28;19922;-88
2022/08/02 02:53:42;;;;;;;;;;;;;;;;;;5095798;28;20002;-88
2022/08/02 02:56:07;;;;;;;;;;;;;;;;;;5112887;28;19966;-87
2022/08/02 02:58:32;;;;;;;;;;;;;;;;;;5113203;28;19916;-90
2022/08/02 03:03:42;;;;;;;;;;;;;;;;;;5110227;28;19973;-88
2022/08/02 03:06:08;;;;;;;;;;;;;;;;;;5095702;28;19923;-88
2022/08/02 03:08:33;;;;;;;;;;;;;;;;;;5112352;28;20007;-88
2022/08/02 03:10:58;;;;;;;;;;;;;;;;;;5112347;28;20317;-88
2022/08/02 03:13:23;;;;;;;;;;;;;;;;;;5112552;28;19995;-87
2022/08/02 03:15:52;;;;;;;;;;;;;;;;;;5112313;28;19928;-88
2022/08/02 03:18:30;;;;;;;;;;;;;;;;;;5102044;28;19912;-87
2022/08/02 03:20:59;;;;;;;;;;;;;;;;;;5100060;28;19912;-86
2022/08/02 03:23:25;;;;;;;;;;;;;;;;;;5121513;28;20265;-88
2022/08/02 03:25:51;;;;;;;;;;;;;;;;;;5112597;28;19919;-90
2022/08/02 03:28:16;;;;;;;;;;;;;;;;;;5095240;28;19916;-88
2022/08/02 03:30:41;;;;;;;;;;;;;;;;;;5096359;28;19973;-89
2022/08/02 03:33:07;;;;;;;;;;;;;;;;;;5094821;28;19916;-89
2022/08/02 03:35:32;;;;;;;;;;;;;;;;;;5096459;28;20340;-90
2022/08/02 03:37:57;;;;;;;;;;;;;;;;;;5116162;28;19935;-88
2022/08/02 03:40:23;;;;;;;;;;;;;;;;;;5115781;28;19963;-89
2022/08/02 03:42:48;;;;;;;;;;;;;;;;;;5117108;28;20299;-90
2022/08/02 03:45:13;;;;;;;;;;;;;;;;;;5094784;28;19916;-88
2022/08/02 03:47:39;;;;;;;;;;;;;;;;;;5111933;28;19916;-87
2022/08/02 03:50:05;;;;;;;;;;;;;;;;;;5111456;28;20269;-87
2022/08/02 03:52:30;;;;;;;;;;;;;;;;;;5111099;28;19923;-89
2022/08/02 03:54:56;;;;;;;;;;;;;;;;;;5094631;28;19916;-88
2022/08/02 03:57:21;;;;;;;;;;;;;;;;;;5096251;28;19916;-88
2022/08/02 03:59:46;;;;;;;;;;;;;;;;;;5111559;28;19923;-87
2022/08/02 04:02:12;;;;;;;;;;;;;;;;;;5111846;28;19920;-87
2022/08/02 04:04:37;;;;;;;;;;;;;;;;;;5121445;28;19904;-88
2022/08/02 04:07:03;;;;;;;;;;;;;;;;;;5111690;28;19965;-88
2022/08/02 04:09:28;;;;;;;;;;;;;;;;;;5110942;28;19916;-87
2022/08/02 04:11:53;;;;;;;;;;;;;;;;;;5111460;28;19920;-87
2022/08/02 04:14:19;;;;;;;;;;;;;;;;;;5096055;28;20238;-86
2022/08/02 04:16:44;;;;;;;;;;;;;;;;;;5094262;28;19925;-87
2022/08/02 04:19:10;;;;;;;;;;;;;;;;;;5097329;28;19904;-86
2022/08/02 04:21:36;;;;;;;;;;;;;;;;;;5099186;28;20291;-88
2022/08/02 04:24:02;;;;;;;;;;;;;;;;;;5111836;28;20010;-87
2022/08/02 04:26:27;;;;;;;;;;;;;;;;;;5104363;28;19962;-87
2022/08/02 04:28:52;;;;;;;;;;;;;;;;;;5111230;28;19923;-87
2022/08/02 04:31:18;;;;;;;;;;;;;;;;;;5111211;28;20333;-86
2022/08/02 04:33:43;;;;;;;;;;;;;;;;;;5110942;28;19923;-90
2022/08/02 04:36:09;;;;;;;;;;;;;;;;;;5111093;28;20004;-86
2022/08/02 04:38:34;;;;;;;;;;;;;;;;;;5110935;28;20254;-88
2022/08/02 04:41:00;;;;;;;;;;;;;;;;;;5115152;28;19981;-87
2022/08/02 04:43:25;;;;;;;;;;;;;;;;;;5103349;28;19927;-88
2022/08/02 04:45:51;;;;;;;;;;;;;;;;;;5095720;28;20373;-86
2022/08/02 04:48:17;;;;;;;;;;;;;;;;;;5103767;28;20250;-89
2022/08/02 04:50:42;;;;;;;;;;;;;;;;;;5097304;28;19917;-89
2022/08/02 04:53:07;;;;;;;;;;;;;;;;;;5111067;28;19923;-87
2022/08/02 04:55:33;;;;;;;;;;;;;;;;;;5095385;28;19926;-89
2022/08/02 04:57:58;;;;;;;;;;;;;;;;;;5093465;28;20251;-88
2022/08/02 05:00:24;;;;;;;;;;;;;;;;;;5095142;28;19916;-87
2022/08/02 05:02:50;;;;;;;;;;;;;;;;;;5104196;28;19920;-87
2022/08/02 05:05:15;;;;;;;;;;;;;;;;;;5099718;28;19917;-88
2022/08/02 05:07:41;;;;;;;;;;;;;;;;;;5099041;28;19923;-89
2022/08/02 05:10:06;;;;;;;;;;;;;;;;;;5124787;28;19920;-89
2022/08/02 05:12:31;;;;;;;;;;;;;;;;;;5100343;28;19916;-87
2022/08/02 05:14:59;;;;;;;;;;;;;;;;;;5098920;28;19974;-88
2022/08/02 05:17:25;;;;;;;;;;;;;;;;;;5115060;28;19916;-88
2022/08/02 05:19:50;;;;;;;;;;;;;;;;;;5098827;28;19916;-88
2022/08/02 05:22:18;;;;;;;;;;;;;;;;;;5115043;28;19916;-87
2022/08/02 05:24:43;;;;;;;;;;;;;;;;;;5114907;28;19999;-86
2022/08/02 05:27:09;;;;;;;;;;;;;;;;;;5099135;28;19962;-88
2022/08/02 05:29:37;;;;;;;;;;;;;;;;;;5098491;28;19917;-88
2022/08/02 05:32:05;;;;;;;;;;;;;;;;;;5111624;28;19920;-87
2022/08/02 05:34:30;;;;;;;;;;;;;;;;;;5116806;28;20238;-87
2022/08/02 05:36:56;;;;;;;;;;;;;;;;;;5114212;28;19916;-88
2022/08/02 05:39:21;;;;;;;;;;;;;;;;;;5098709;28;19916;-88
2022/08/02 05:41:46;;;;;;;;;;;;;;;;;;5114770;28;19916;-87
2022/08/02 05:44:11;;;;;;;;;;;;;;;;;;5126418;28;19908;-89
2022/08/02 05:46:37;;;;;;;;;;;;;;;;;;5097695;28;19916;-88
2022/08/02 05:49:04;;;;;;;;;;;;;;;;;;5114164;28;19916;-87
2022/08/02 05:51:29;;;;;;;;;;;;;;;;;;5097988;28;19973;-85
2022/08/02 05:53:55;;;;;;;;;;;;;;;;;;5099770;28;19920;-87
2022/08/02 05:56:20;;;;;;;;;;;;;;;;;;5115258;28;19916;-88
2022/08/02 05:58:49;;;;;;;;;;;;;;;;;;5097832;28;20395;-84
2022/08/02 06:01:14;;;;;;;;;;;;;;;;;;5113850;28;20003;-82
2022/08/02 06:03:43;;;;;;;;;;;;;;;;;;5122753;28;20012;-83
2022/08/02 06:06:11;;;;;;;;;;;;;;;;;;5113565;28;19923;-83
2022/08/02 06:08:38;;;;;;;;;;;;;;;;;;5098194;28;19916;-81
2022/08/02 06:11:04;;;;;;;;;;;;;;;;;;5096883;28;19973;-83
2022/08/02 06:13:29;;;;;;;;;;;;;;;;;;5097878;28;19916;-82
2022/08/02 06:15:58;;;;;;;;;;;;;;;;;;5112523;28;19962;-82
2022/08/02 06:18:23;;;;;;;;;;;;;;;;;;5098101;28;19920;-82
2022/08/02 06:20:49;;;;;;;;;;;;;;;;;;5097994;28;19916;-83
2022/08/02 06:23:15;;;;;;;;;;;;;;;;;;5101917;28;19917;-83
2022/08/02 06:25:41;;;;;;;;;;;;;;;;;;5105422;28;19920;-83
2022/08/02 06:28:06;;;;;;;;;;;;;;;;;;5123283;28;20053;-82
2022/08/02 06:30:32;;;;;;;;;;;;;;;;;;5120383;28;19985;-83
2022/08/02 06:32:57;;;;;;;;;;;;;;;;;;5104624;28;19923;-82
2022/08/02 06:35:29;;;;;;;;;;;;;;;;;;5114810;28;19921;-83
2022/08/02 06:37:58;;;;;;;;;;;;;;;;;;5114108;28;19920;-82
2022/08/02 06:40:27;;;;;;;;;;;;;;;;;;5100019;28;19916;-84
2022/08/02 06:42:52;;;;;;;;;;;;;;;;;;5098180;28;19931;-83
2022/08/02 06:45:17;;;;;;;;;;;;;;;;;;5102453;28;19916;-83
2022/08/02 06:47:43;;;;;;;;;;;;;;;;;;5113819;28;19916;-83
2022/08/02 06:50:08;;;;;;;;;;;;;;;;;;5097015;28;19916;-84
2022/08/02 06:52:34;;;;;;;;;;;;;;;;;;5098284;28;19924;-87
2022/08/02 06:55:00;;;;;;;;;;;;;;;;;;5097553;28;20409;-88
2022/08/02 06:57:26;;;;;;;;;;;;;;;;;;5096853;28;19936;-87
2022/08/02 06:59:51;;;;;;;;;;;;;;;;;;5097975;28;19912;-88
2022/08/02 07:02:17;;;;;;;;;;;;;;;;;;5112623;28;19916;-86
2022/08/02 07:04:42;;;;;;;;;;;;;;;;;;5095633;28;20349;-89
2022/08/02 07:07:07;;;;;;;;;;;;;;;;;;5097732;28;20214;-90
2022/08/02 07:09:33;;;;;;;;;;;;;;;;;;5095748;28;19968;-87
2022/08/02 07:11:58;;;;;;;;;;;;;;;;;;5095368;28;20015;-89
2022/08/02 07:14:23;;;;;;;;;;;;;;;;;;5096744;28;19994;-87
2022/08/02 07:16:49;;;;;;;;;;;;;;;;;;5112192;28;20018;-85
2022/08/02 07:19:14;;;;;;;;;;;;;;;;;;5096278;28;20336;-87
2022/08/02 07:21:39;;;;;;;;;;;;;;;;;;5096536;28;20381;-86
2022/08/02 07:24:05;;;;;;;;;;;;;;;;;;5096600;28;19917;-84
2022/08/02 07:26:30;;;;;;;;;;;;;;;;;;5112593;28;19916;-88
2022/08/02 07:28:57;;;;;;;;;;;;;;;;;;5112478;28;19916;-88
2022/08/02 07:31:22;;;;;;;;;;;;;;;;;;5095903;28;19917;-87
2022/08/02 07:33:48;;;;;;;;;;;;;;;;;;5096634;28;19922;-87
2022/08/02 07:36:13;;;;;;;;;;;;;;;;;;5096373;28;19916;-85
2022/08/02 07:38:38;;;;;;;;;;;;;;;;;;5096953;28;19974;-87
2022/08/02 07:41:03;;;;;;;;;;;;;;;;;;5096727;28;19920;-88
2022/08/02 07:43:29;;;;;;;;;;;;;;;;;;5112032;28;20327;-88
2022/08/02 07:45:54;;;;;;;;;;;;;;;;;;5096603;28;19923;-90
2022/08/02 07:48:19;;;;;;;;;;;;;;;;;;5102260;28;19916;-90
2022/08/02 07:50:45;;;;;;;;;;;;;;;;;;5099279;28;19979;-90
2022/08/02 07:53:10;;;;;;;;;;;;;;;;;;5112970;28;19923;-91
2022/08/02 07:55:36;;;;;;;;;;;;;;;;;;5097414;28;19920;-87
2022/08/02 07:58:01;;;;;;;;;;;;;;;;;;5112476;28;20340;-88
2022/08/02 08:00:26;;;;;;;;;;;;;;;;;;5095451;28;19955;-92
2022/08/02 08:02:58;;;;;;;;;;;;;;;;;;5097044;28;19916;-89
2022/08/02 08:05:24;;;;;;;;;;;;;;;;;;5096773;28;19916;-89
2022/08/02 08:07:49;;;;;;;;;;;;;;;;;;5099683;28;19939;-91
2022/08/02 08:10:15;;;;;;;;;;;;;;;;;;5099258;28;19916;-87
2022/08/02 08:12:40;;;;;;;;;;;;;;;;;;5096839;28;19916;-89
2022/08/02 08:15:06;;;;;;;;;;;;;;;;;;5096036;28;19920;-86
2022/08/02 08:17:31;;;;;;;;;;;;;;;;;;5097048;28;20278;-88
2022/08/02 08:19:57;;;;;;;;;;;;;;;;;;5097037;28;19916;-89
2022/08/02 08:22:22;;;;;;;;;;;;;;;;;;5114192;28;19916;-89
2022/08/02 08:24:47;;;;;;;;;;;;;;;;;;5111313;28;20222;-88
2022/08/02 08:27:15;;;;;;;;;;;;;;;;;;5096552;28;19916;-90
2022/08/02 08:29:41;;;;;;;;;;;;;;;;;;5100651;28;19931;-88
2022/08/02 08:32:07;;;;;;;;;;;;;;;;;;5114092;28;19916;-89
2022/08/02 08:34:33;;;;;;;;;;;;;;;;;;5112462;28;19917;-89
2022/08/02 08:36:59;;;;;;;;;;;;;;;;;;5096748;28;20250;-89
2022/08/02 08:39:24;;;;;;;;;;;;;;;;;;5096083;28;19923;-88
2022/08/02 08:41:50;;;;;;;;;;;;;;;;;;5096225;28;19916;-88
2022/08/02 08:44:15;;;;;;;;;;;;;;;;;;5095189;28;19920;-89
2022/08/02 08:46:41;;;;;;;;;;;;;;;;;;5110944;28;19916;-88
2022/08/02 08:49:08;;;;;;;;;;;;;;;;;;5111504;28;19951;-87
2022/08/02 08:51:37;;;;;;;;;;;;;;;;;;5116420;28;19916;-89
2022/08/02 08:54:03;;;;;;;;;;;;;;;;;;5112717;28;20340;-90
2022/08/02 08:56:31;;;;;;;;;;;;;;;;;;5110479;28;19999;-88
2022/08/02 08:58:56;;;;;;;;;;;;;;;;;;5110521;28;19916;-88
2022/08/02 09:01:24;;;;;;;;;;;;;;;;;;5110707;28;19923;-88
2022/08/02 09:03:49;;;;;;;;;;;;;;;;;;5110407;28;19915;-88
2022/08/02 09:06:15;;;;;;;;;;;;;;;;;;5111344;28;19994;-90
2022/08/02 09:08:40;;;;;;;;;;;;;;;;;;5095054;28;20234;-88
2022/08/02 09:11:12;;;;;;;;;;;;;;;;;;5101063;28;19904;-86
2022/08/02 09:13:40;;;;;;;;;;;;;;;;;;5095141;28;19938;-87
2022/08/02 09:16:06;;;;;;;;;;;;;;;;;;5110239;28;20242;-89
2022/08/02 09:18:31;;;;;;;;;;;;;;;;;;5094975;28;20030;-89
2022/08/02 09:21:01;;;;;;;;;;;;;;;;;;5110683;28;19922;-88
2022/08/02 09:23:32;;;;;;;;;;;;;;;;;;5110702;28;19923;-87
2022/08/02 09:25:58;;;;;;;;;;;;;;;;;;5114619;28;19981;-86
2022/08/02 09:28:27;;;;;;;;;;;;;;;;;;5094642;28;19975;-88
2022/08/02 09:30:55;;;;;;;;;;;;;;;;;;5093901;28;19923;-87
2022/08/02 09:33:24;;;;;;;;;;;;;;;;;;5114829;28;19971;-90
2022/08/02 09:35:49;;;;;;;;;;;;;;;;;;5094870;28;19923;-87
2022/08/02 09:38:15;;;;;;;;;;;;;;;;;;5110615;28;19916;-86
2022/08/02 09:40:40;;;;;;;;;;;;;;;;;;5110606;28;19920;-88
2022/08/02 09:43:08;;;;;;;;;;;;;;;;;;5097383;28;20236;-86
2022/08/02 09:45:34;;;;;;;;;;;;;;;;;;5100285;28;19908;-86
2022/08/02 09:48:06;;;;;;;;;;;;;;;;;;5116737;28;19921;-90
2022/08/02 09:50:31;;;;;;;;;;;;;;;;;;5099464;28;20010;-91
2022/08/02 09:52:57;;;;;;;;;;;;;;;;;;5098378;28;19959;-87
2022/08/02 09:55:23;;;;;;;;;;;;;;;;;;5116770;28;19977;-89
2022/08/02 09:57:48;;;;;;;;;;;;;;;;;;5114270;28;19959;-89
2022/08/02 10:00:13;;;;;;;;;;;;;;;;;;5098387;28;19923;-88
2022/08/02 10:02:39;;;;;;;;;;;;;;;;;;5098660;28;19994;-88
2022/08/02 10:05:04;;;;;;;;;;;;;;;;;;5114610;28;20063;-87
2022/08/02 10:07:30;;;;;;;;;;;;;;;;;;5098746;28;19916;-86
2022/08/02 10:09:55;;;;;;;;;;;;;;;;;;5098034;28;20261;-87
2022/08/02 10:12:23;;;;;;;;;;;;;;;;;;5114245;28;19916;-87
2022/08/02 10:14:49;;;;;;;;;;;;;;;;;;5113333;28;19923;-89
2022/08/02 10:17:14;;;;;;;;;;;;;;;;;;5101966;28;19916;-88
2022/08/02 10:19:59;;;;;;;;;;;;;;;;;;5097237;28;19916;-89
2022/08/02 10:22:35;;;;;;;;;;;;;;;;;;5103391;28;19916;-89
2022/08/02 10:25:01;;;;;;;;;;;;;;;;;;5098157;28;19923;-89
2022/08/02 10:27:26;;;;;;;;;;;;;;;;;;5097899;28;20304;-87
2022/08/02 10:29:53;;;;;;;;;;;;;;;;;;5097885;28;19924;-86
2022/08/02 10:32:37;;;;;;;;;;;;;;;;;;5113474;28;19916;-87
2022/08/02 10:35:06;;;;;;;;;;;;;;;;;;5098250;28;19916;-88
2022/08/02 10:37:32;;;;;;;;;;;;;;;;;;5103407;28;19963;-86
2022/08/02 10:39:57;;;;;;;;;;;;;;;;;;5113323;28;19956;-91
2022/08/02 10:42:42;;;;;;;;;;;;;;;;;;5096371;28;19916;-90
2022/08/02 10:45:10;;;;;;;;;;;;;;;;;;5096727;28;20253;-91
2022/08/02 10:47:35;;;;;;;;;;;;;;;;;;5100114;28;19934;-89
2022/08/02 10:50:02;;;;;;;;;;;;;;;;;;5099522;28;19981;-92
2022/08/02 10:52:31;;;;;;;;;;;;;;;;;;5107318;28;19916;-88
2022/08/02 10:55:00;;;;;;;;;;;;;;;;;;5098969;28;19916;-89
2022/08/02 10:57:29;;;;;;;;;;;;;;;;;;5121593;28;19924;-89
2022/08/02 10:59:57;;;;;;;;;;;;;;;;;;5113860;28;20309;-87
2022/08/02 11:02:39;;;;;;;;;;;;;;;;;;5112158;28;20253;-86
2022/08/02 11:05:11;;;;;;;;;;;;;;;;;;5113386;28;19916;-88
2022/08/02 11:07:41;;;;;;;;;;;;;;;;;;5115082;28;19923;-91
2022/08/02 11:10:26;;;;;;;;;;;;;;;;;;5115611;28;19916;-88
2022/08/02 11:13:07;;;;;;;;;;;;;;;;;;5085773;28;20328;-83
2022/08/02 11:15:48;;;;;;;;;;;;;;;;;;5100774;28;20336;-87
2022/08/02 11:18:14;;;;;;;;;;;;;;;;;;5099573;28;19965;-90
2022/08/02 11:20:39;;;;;;;;;;;;;;;;;;5099379;28;19916;-90
2022/08/02 11:23:23;;;;;;;;;;;;;;;;;;5112420;28;19965;-87
2022/08/02 11:25:50;;;;;;;;;;;;;;;;;;5096609;28;19924;-89
2022/08/02 11:28:16;;;;;;;;;;;;;;;;;;5096572;28;19924;-90
2022/08/02 11:30:41;;;;;;;;;;;;;;;;;;5095175;28;19921;-90
2022/08/02 11:33:06;;;;;;;;;;;;;;;;;;5094796;28;19916;-89
2022/08/02 11:35:36;;;;;;;;;;;;;;;;;;5097185;28;19923;-88
2022/08/02 11:38:12;;;;;;;;;;;;;;;;;;5096409;28;19959;-90
2022/08/02 11:40:37;;;;;;;;;;;;;;;;;;5113081;28;20002;-88
2022/08/02 11:43:05;;;;;;;;;;;;;;;;;;5096290;28;20369;-89
2022/08/02 11:45:30;;;;;;;;;;;;;;;;;;5111743;28;19944;-87
2022/08/02 11:47:56;;;;;;;;;;;;;;;;;;5111721;28;19947;-85
2022/08/02 11:50:24;;;;;;;;;;;;;;;;;;5096083;28;19971;-89
2022/08/02 11:52:49;;;;;;;;;;;;;;;;;;5095787;28;20334;-90
2022/08/02 11:55:14;;;;;;;;;;;;;;;;;;5112605;28;19916;-91
2022/08/02 11:57:40;;;;;;;;;;;;;;;;;;5097022;28;19972;-84
2022/08/02 12:00:18;;;;;;;;;;;;;;;;;;5113381;28;19965;-84
2022/08/02 12:02:49;;;;;;;;;;;;;;;;;;5096366;28;20254;-84
2022/08/02 12:05:15;;;;;;;;;;;;;;;;;;5110694;28;19916;-83
2022/08/02 12:07:40;;;;;;;;;;;;;;;;;;5111730;28;19923;-85
2022/08/02 12:10:06;;;;;;;;;;;;;;;;;;5111482;28;19916;-85
2022/08/02 12:12:32;;;;;;;;;;;;;;;;;;5096444;28;19923;-85
2022/08/02 12:14:57;;;;;;;;;;;;;;;;;;5094759;28;19920;-86
2022/08/02 12:20:18;;;;;;;;;;;;;;;;;;5049112;28;19924;-83
2022/08/02 12:22:46;;;;;;;;;;;;;;;;;;5094665;28;19916;-85
2022/08/02 12:25:18;;;;;;;;;;;;;;;;;;5096099;28;19923;-85
2022/08/02 12:27:44;;;;;;;;;;;;;;;;;;5111364;28;19931;-87
2022/08/02 12:30:10;;;;;;;;;;;;;;;;;;5095200;28;20330;-88
2022/08/02 12:32:35;;;;;;;;;;;;;;;;;;5111392;28;19916;-86
2022/08/02 12:35:13;;;;;;;;;;;;;;;;;;5095605;28;20227;-85
2022/08/02 12:37:42;;;;;;;;;;;;;;;;;;5108668;28;19927;-87
2022/08/02 12:40:18;;;;;;;;;;;;;;;;;;5124408;28;20059;-88
2022/08/02 12:42:47;;;;;;;;;;;;;;;;;;5116062;28;19912;-85
2022/08/02 12:45:12;;;;;;;;;;;;;;;;;;5117228;28;20007;-86
2022/08/02 12:47:48;;;;;;;;;;;;;;;;;;5110689;28;20061;-87
2022/08/02 12:50:17;;;;;;;;;;;;;;;;;;5110624;28;19923;-89
2022/08/02 12:52:42;;;;;;;;;;;;;;;;;;5110897;28;19916;-86
2022/08/02 12:55:20;;;;;;;;;;;;;;;;;;5095110;28;19928;-89
2022/08/02 12:57:49;;;;;;;;;;;;;;;;;;5094707;28;19924;-87
2022/08/02 13:00:21;;;;;;;;;;;;;;;;;;5094154;28;20024;-89
2022/08/02 13:02:47;;;;;;;;;;;;;;;;;;5099278;28;19927;-86
2022/08/02 13:05:12;;;;;;;;;;;;;;;;;;5110613;28;19990;-88
2022/08/02 13:07:37;;;;;;;;;;;;;;;;;;5095275;28;19920;-87
2022/08/02 13:10:03;;;;;;;;;;;;;;;;;;5110732;28;19923;-88
2022/08/02 13:12:28;;;;;;;;;;;;;;;;;;5095221;28;19922;-85
2022/08/02 13:14:53;;;;;;;;;;;;;;;;;;5094977;28;20012;-87
2022/08/02 13:17:18;;;;;;;;;;;;;;;;;;5095518;28;20015;-85
2022/08/02 13:19:44;;;;;;;;;;;;;;;;;;5095049;28;19966;-87
2022/08/02 13:22:09;;;;;;;;;;;;;;;;;;5110313;28;20010;-87
2022/08/02 13:24:34;;;;;;;;;;;;;;;;;;5098676;28;19916;-86
2022/08/02 13:27:00;;;;;;;;;;;;;;;;;;5098596;28;19916;-87
2022/08/02 13:29:25;;;;;;;;;;;;;;;;;;5097970;28;19923;-90
2022/08/02 13:31:51;;;;;;;;;;;;;;;;;;5114850;28;19939;-91
2022/08/02 13:34:16;;;;;;;;;;;;;;;;;;5098796;28;20337;-85
2022/08/02 13:36:41;;;;;;;;;;;;;;;;;;5099025;28;19916;-88
2022/08/02 13:39:08;;;;;;;;;;;;;;;;;;5098650;28;20233;-88
2022/08/02 13:41:33;;;;;;;;;;;;;;;;;;5099913;28;20006;-90
2022/08/02 13:43:58;;;;;;;;;;;;;;;;;;5100347;28;19971;-90
2022/08/02 13:46:24;;;;;;;;;;;;;;;;;;5117406;28;19927;-89
2022/08/02 13:48:49;;;;;;;;;;;;;;;;;;5098006;28;19938;-86
2022/08/02 13:51:14;;;;;;;;;;;;;;;;;;5098388;28;19946;-88
2022/08/02 13:53:40;;;;;;;;;;;;;;;;;;5114605;28;20346;-89
2022/08/02 13:56:05;;;;;;;;;;;;;;;;;;5114239;28;20254;-90
2022/08/02 13:58:30;;;;;;;;;;;;;;;;;;5113990;28;19923;-86
2022/08/02 14:00:56;;;;;;;;;;;;;;;;;;5113745;28;19920;-86
2022/08/02 14:03:23;;;;;;;;;;;;;;;;;;5113288;28;20143;-85
2022/08/02 14:05:48;;;;;;;;;;;;;;;;;;5099842;28;19951;-86
2022/08/02 14:08:14;;;;;;;;;;;;;;;;;;5098258;28;19955;-88
2022/08/02 14:10:40;;;;;;;;;;;;;;;;;;5098285;28;19923;-86
2022/08/02 14:13:05;;;;;;;;;;;;;;;;;;5114085;28;19916;-85
2022/08/02 14:15:31;;;;;;;;;;;;;;;;;;5097979;28;20374;-86
2022/08/02 14:17:56;;;;;;;;;;;;;;;;;;5096447;28;19951;-87
2022/08/02 14:20:22;;;;;;;;;;;;;;;;;;5097551;28;20010;-87
2022/08/02 14:22:47;;;;;;;;;;;;;;;;;;5097404;28;20002;-86
2022/08/02 14:25:12;;;;;;;;;;;;;;;;;;5106023;28;19951;-85
2022/08/02 14:27:37;;;;;;;;;;;;;;;;;;5097687;28;19916;-84
2022/08/02 14:30:03;;;;;;;;;;;;;;;;;;5113400;28;19912;-85
2022/08/02 14:32:28;;;;;;;;;;;;;;;;;;5097371;28;19923;-85
2022/08/02 14:34:54;;;;;;;;;;;;;;;;;;5113035;28;19916;-85
2022/08/02 14:37:19;;;;;;;;;;;;;;;;;;5096741;28;19995;-84
2022/08/02 14:39:44;;;;;;;;;;;;;;;;;;5097614;28;19938;-84
2022/08/02 14:42:10;;;;;;;;;;;;;;;;;;5097406;28;20348;-85
2022/08/02 14:44:35;;;;;;;;;;;;;;;;;;5103970;28;19931;-83
2022/08/02 14:47:00;;;;;;;;;;;;;;;;;;5103002;28;19927;-84
2022/08/02 14:49:25;;;;;;;;;;;;;;;;;;5097424;28;19923;-85
2022/08/02 14:51:51;;;;;;;;;;;;;;;;;;5097337;28;20006;-85
2022/08/02 14:54:16;;;;;;;;;;;;;;;;;;5097238;28;19939;-84
2022/08/02 14:56:41;;;;;;;;;;;;;;;;;;5097184;28;19998;-85
2022/08/02 14:59:07;;;;;;;;;;;;;;;;;;5097173;28;20342;-85
2022/08/02 15:01:32;;;;;;;;;;;;;;;;;;5096892;28;19920;-85
2022/08/02 15:03:58;;;;;;;;;;;;;;;;;;5097064;28;19977;-85
2022/08/02 15:06:25;;;;;;;;;;;;;;;;;;5098883;28;19917;-86
2022/08/02 15:08:50;;;;;;;;;;;;;;;;;;5100400;28;19923;-86
2022/08/02 15:11:15;;;;;;;;;;;;;;;;;;5112479;28;19916;-86
2022/08/02 15:13:41;;;;;;;;;;;;;;;;;;5095498;28;19925;-86
2022/08/02 15:16:06;;;;;;;;;;;;;;;;;;5096580;28;19955;-85
2022/08/02 15:18:31;;;;;;;;;;;;;;;;;;5112408;28;19972;-85
2022/08/02 15:20:57;;;;;;;;;;;;;;;;;;5096566;28;20315;-85
2022/08/02 15:23:23;;;;;;;;;;;;;;;;;;5095300;28;19916;-85
2022/08/02 15:25:48;;;;;;;;;;;;;;;;;;5096571;28;19922;-87
2022/08/02 15:28:14;;;;;;;;;;;;;;;;;;5106290;28;20014;-86
2022/08/02 15:30:39;;;;;;;;;;;;;;;;;;5096573;28;19959;-85
2022/08/02 15:33:04;;;;;;;;;;;;;;;;;;5096530;28;19916;-85
2022/08/02 15:35:30;;;;;;;;;;;;;;;;;;5112284;28;19917;-86
2022/08/02 15:37:55;;;;;;;;;;;;;;;;;;5112325;28;19965;-85
2022/08/02 15:40:21;;;;;;;;;;;;;;;;;;5096281;28;20242;-87
2022/08/02 15:42:46;;;;;;;;;;;;;;;;;;5111839;28;20234;-86
2022/08/02 15:45:12;;;;;;;;;;;;;;;;;;5094523;28;19959;-86
2022/08/02 15:47:37;;;;;;;;;;;;;;;;;;5111346;28;19924;-86
2022/08/02 15:50:02;;;;;;;;;;;;;;;;;;5123824;28;19920;-85
2022/08/02 15:52:28;;;;;;;;;;;;;;;;;;5096891;28;19917;-85
2022/08/02 15:54:53;;;;;;;;;;;;;;;;;;5096172;28;19917;-85
2022/08/02 15:57:19;;;;;;;;;;;;;;;;;;5111759;28;20234;-86
2022/08/02 15:59:45;;;;;;;;;;;;;;;;;;5095832;28;20237;-88
2022/08/02 16:02:12;;;;;;;;;;;;;;;;;;5094729;28;19916;-86
2022/08/02 16:04:37;;;;;;;;;;;;;;;;;;5095929;28;20371;-86
2022/08/02 16:07:03;;;;;;;;;;;;;;;;;;5095919;28;19916;-87
2022/08/02 16:09:28;;;;;;;;;;;;;;;;;;5123693;28;19920;-84
2022/08/02 16:11:53;;;;;;;;;;;;;;;;;;5098956;28;19955;-86
2022/08/02 16:14:19;;;;;;;;;;;;;;;;;;5095539;28;19916;-86
2022/08/02 16:16:44;;;;;;;;;;;;;;;;;;5095717;28;20227;-86
2022/08/02 16:19:09;;;;;;;;;;;;;;;;;;5095453;28;20273;-86
2022/08/02 16:21:35;;;;;;;;;;;;;;;;;;5095602;28;19959;-86
2022/08/02 16:24:01;;;;;;;;;;;;;;;;;;5095906;28;20031;-86
2022/08/02 16:26:28;;;;;;;;;;;;;;;;;;5095949;28;19916;-86
2022/08/02 16:28:53;;;;;;;;;;;;;;;;;;5114439;28;19916;-84
2022/08/02 16:31:19;;;;;;;;;;;;;;;;;;5102240;28;20322;-84
2022/08/02 16:33:44;;;;;;;;;;;;;;;;;;5098145;28;19924;-85
2022/08/02 16:36:10;;;;;;;;;;;;;;;;;;5095371;28;20246;-87
2022/08/02 16:38:35;;;;;;;;;;;;;;;;;;5095016;28;19916;-86
2022/08/02 16:41:00;;;;;;;;;;;;;;;;;;5095016;28;19939;-86
2022/08/02 16:43:26;;;;;;;;;;;;;;;;;;5110639;28;19920;-87
2022/08/02 16:45:51;;;;;;;;;;;;;;;;;;5111030;28;19916;-86